Time;durP1;ratioP1;P1;durP2;ratioP2;P2;SDS_P1;SDS_P2;PMS_P1;PMS_P2;Temp;Humidity;BMP_temperature;BMP_pressure;BME280_temperature;BME280_humidity;BME280_pressure;Samples;Min_cycle;Max_cycle;Signal;HPM_P1;HPM_P2
2022/04/16 00:02:04;;;;;;;14.07;12.40;;;12.80;77.20;;;;;;5076536;28;20495;-70
2022/04/16 00:04:31;;;;;;;13.63;12.33;;;12.70;77.00;;;;;;5076474;28;20448;-70
2022/04/16 00:06:59;;;;;;;16.30;13.40;;;12.70;77.00;;;;;;5076733;28;20486;-70
2022/04/16 00:09:26;;;;;;;14.50;13.00;;;12.70;77.10;;;;;;5076291;28;20449;-70
2022/04/16 00:11:53;;;;;;;13.07;11.87;;;12.60;77.10;;;;;;5076276;28;20472;-70
2022/04/16 00:14:20;;;;;;;13.70;12.40;;;12.60;77.30;;;;;;5076203;28;20451;-70
2022/04/16 00:16:47;;;;;;;12.83;11.47;;;12.50;77.30;;;;;;5076166;28;20511;-70
2022/04/16 00:19:14;;;;;;;15.77;12.17;;;12.50;77.40;;;;;;5075875;28;20835;-70
2022/04/16 00:21:41;;;;;;;13.00;11.80;;;12.40;77.40;;;;;;5076294;28;20882;-70
2022/04/16 00:24:09;;;;;;;13.37;12.00;;;12.40;77.60;;;;;;5075851;28;20449;-70
2022/04/16 00:26:41;;;;;;;14.03;12.53;;;12.40;77.70;;;;;;5076198;28;20445;-70
2022/04/16 00:29:08;;;;;;;14.27;12.70;;;12.30;77.70;;;;;;5075749;28;20825;-70
2022/04/16 00:31:34;;;;;;;15.00;12.53;;;12.30;77.80;;;;;;5075918;28;20456;-70
2022/04/16 00:34:02;;;;;;;15.00;13.40;;;12.30;78.00;;;;;;5075901;28;20452;-70
2022/04/16 00:36:28;;;;;;;14.93;12.13;;;12.20;78.00;;;;;;5075443;28;20555;-70
2022/04/16 00:38:56;;;;;;;13.47;12.07;;;12.20;78.20;;;;;;5075894;28;20461;-70
2022/04/16 00:41:24;;;;;;;13.80;12.40;;;12.20;78.10;;;;;;5075457;28;20539;-70
2022/04/16 00:43:52;;;;;;;16.23;12.37;;;12.10;78.20;;;;;;5075685;28;20448;-70
2022/04/16 00:46:19;;;;;;;15.47;13.17;;;12.10;78.30;;;;;;5075748;28;20445;-70
2022/04/16 00:48:46;;;;;;;14.10;12.70;;;12.10;78.20;;;;;;5075376;28;20487;-70
2022/04/16 00:51:14;;;;;;;12.93;11.63;;;12.10;78.20;;;;;;5075369;28;20467;-70
2022/04/16 00:53:41;;;;;;;13.33;11.90;;;12.00;78.10;;;;;;5075672;28;20448;-70
2022/04/16 00:56:10;;;;;;;13.77;12.47;;;11.90;78.30;;;;;;5075440;28;20491;-70
2022/04/16 00:58:39;;;;;;;14.10;12.80;;;11.90;78.60;;;;;;5075481;28;20547;-70
2022/04/16 01:01:06;;;;;;;12.47;11.27;;;11.80;78.50;;;;;;5074355;28;20462;-70
2022/04/16 01:03:33;;;;;;;14.13;12.77;;;11.80;78.40;;;;;;5075337;28;20453;-70
2022/04/16 01:06:00;;;;;;;13.20;11.90;;;11.70;78.30;;;;;;5075647;28;20452;-70
2022/04/16 01:08:27;;;;;;;13.90;12.50;;;11.70;78.40;;;;;;5075981;28;20453;-70
2022/04/16 01:10:54;;;;;;;11.70;10.50;;;11.70;78.60;;;;;;5075253;28;20469;-70
2022/04/16 01:13:21;;;;;;;13.77;12.33;;;11.60;78.50;;;;;;5075287;28;20449;-70
2022/04/16 01:15:50;;;;;;;14.00;12.70;;;11.60;78.60;;;;;;5075326;28;20899;-70
2022/04/16 01:18:17;;;;;;;14.40;13.10;;;11.50;78.50;;;;;;5075104;28;20449;-70
2022/04/16 01:20:44;;;;;;;14.43;13.03;;;11.50;78.80;;;;;;5074581;28;20518;-70
2022/04/16 01:23:12;;;;;;;13.97;12.57;;;11.40;78.90;;;;;;5074937;28;20543;-70
2022/04/16 01:25:39;;;;;;;14.00;12.60;;;11.40;78.90;;;;;;5074662;28;20445;-70
2022/04/16 01:28:06;;;;;;;13.23;11.93;;;11.40;79.00;;;;;;5074988;28;20449;-70
2022/04/16 01:30:34;;;;;;;13.37;12.10;;;11.30;79.10;;;;;;5074755;28;20449;-70
2022/04/16 01:33:03;;;;;;;13.43;12.13;;;11.30;79.30;;;;;;5074814;28;20449;-70
2022/04/16 01:35:30;;;;;;;13.20;11.90;;;11.20;79.40;;;;;;5074853;28;20548;-70
2022/04/16 01:37:57;;;;;;;13.33;12.03;;;11.20;79.50;;;;;;5074762;28;20444;-70
2022/04/16 01:40:25;;;;;;;14.40;13.00;;;11.20;79.70;;;;;;5074388;28;20976;-70
2022/04/16 01:42:56;;;;;;;14.47;12.97;;;11.20;79.80;;;;;;5074284;28;20972;-70
2022/04/16 01:45:24;;;;;;;13.60;12.17;;;11.20;80.00;;;;;;5074661;28;20441;-70
2022/04/16 01:47:51;;;;;;;13.20;11.90;;;11.10;80.10;;;;;;5074578;28;20449;-70
2022/04/16 01:50:19;;;;;;;14.10;12.77;;;11.10;80.10;;;;;;5074740;28;20484;-70
2022/04/16 01:52:47;;;;;;;14.17;12.77;;;11.00;80.10;;;;;;5074270;28;20992;-70
2022/04/16 01:55:14;;;;;;;14.13;12.63;;;11.00;80.40;;;;;;5074573;28;20452;-70
2022/04/16 01:57:43;;;;;;;14.60;13.13;;;11.00;81.30;;;;;;5074353;28;20855;-70
2022/04/16 02:00:14;;;;;;;13.97;12.60;;;11.00;80.50;;;;;;5074171;28;20444;-69
2022/04/16 02:02:41;;;;;;;14.37;12.87;;;10.90;80.50;;;;;;5074233;28;20472;-69
2022/04/16 02:05:09;;;;;;;14.33;12.83;;;10.90;80.80;;;;;;5074212;28;20479;-70
2022/04/16 02:07:38;;;;;;;15.57;14.07;;;10.90;80.90;;;;;;5074083;28;20468;-70
2022/04/16 02:10:06;;;;;;;14.90;13.40;;;10.80;80.90;;;;;;5074030;28;20502;-70
2022/04/16 02:12:33;;;;;;;15.60;14.03;;;10.90;81.30;;;;;;5073584;28;20468;-70
2022/04/16 02:15:01;;;;;;;14.50;13.00;;;10.80;81.30;;;;;;5074012;28;20453;-70
2022/04/16 02:17:29;;;;;;;15.27;13.23;;;10.80;81.60;;;;;;5073602;28;20472;-70
2022/04/16 02:19:56;;;;;;;15.33;13.80;;;10.80;81.60;;;;;;5073572;28;20468;-70
2022/04/16 02:22:24;;;;;;;18.03;15.27;;;10.80;81.70;;;;;;5073564;28;20993;-70
2022/04/16 02:24:51;;;;;;;17.00;14.73;;;10.80;81.90;;;;;;5073708;28;20456;-70
2022/04/16 02:27:18;;;;;;;19.60;16.10;;;10.80;82.20;;;;;;5073835;28;20445;-70
2022/04/16 02:29:44;;;;;;;20.20;16.13;;;10.70;82.60;;;;;;5073775;28;20869;-70
2022/04/16 02:32:13;;;;;;;19.20;15.83;;;10.70;82.90;;;;;;5073759;28;20472;-70
2022/04/16 02:34:40;;;;;;;16.73;15.03;;;10.70;83.30;;;;;;5073653;28;20445;-70
2022/04/16 02:37:07;;;;;;;16.73;14.80;;;10.70;83.20;;;;;;5073630;28;20487;-69
2022/04/16 02:39:34;;;;;;;17.50;15.57;;;10.70;83.30;;;;;;5073271;28;21009;-69
2022/04/16 02:42:01;;;;;;;18.90;16.07;;;10.70;83.40;;;;;;5073621;28;20469;-69
2022/04/16 02:47:14;;;;;;;21.70;16.00;;;10.70;83.30;;;;;;5073658;28;20396;-69
2022/04/16 02:49:41;;;;;;;17.30;15.60;;;10.60;83.40;;;;;;5073535;28;20449;-69
2022/04/16 02:52:08;;;;;;;18.60;16.60;;;10.60;83.60;;;;;;5073923;28;20469;-70
2022/04/16 02:54:35;;;;;;;15.90;14.30;;;10.60;83.60;;;;;;5073690;28;20452;-69
2022/04/16 02:57:03;;;;;;;18.90;16.90;;;10.60;83.50;;;;;;5073324;28;20476;-69
2022/04/16 02:59:30;;;;;;;16.50;14.90;;;10.60;84.40;;;;;;5073459;28;20809;-69
2022/04/16 03:01:56;;;;;;;17.00;15.30;;;10.50;83.10;;;;;;5073456;28;20504;-69
2022/04/16 03:04:26;;;;;;;16.47;14.83;;;10.50;83.00;;;;;;5073518;28;20455;-69
2022/04/16 03:06:53;;;;;;;18.87;15.07;;;10.50;83.00;;;;;;5073599;28;20445;-69
2022/04/16 03:09:20;;;;;;;18.17;15.47;;;10.50;82.80;;;;;;5073462;28;20436;-69
2022/04/16 03:11:46;;;;;;;17.53;15.10;;;10.40;82.80;;;;;;5073254;28;20472;-69
2022/04/16 03:19:45;;;;;;;14.97;13.47;;;10.30;82.60;;;;;;5073159;28;20650;-69
2022/04/16 03:22:12;;;;;;;15.70;14.10;;;10.30;82.50;;;;;;5071982;28;20479;-69
2022/04/16 03:24:39;;;;;;;15.90;14.40;;;10.20;82.60;;;;;;5074127;28;20456;-69
2022/04/16 03:27:06;;;;;;;17.80;16.00;;;10.20;82.60;;;;;;5077577;28;20448;-69
2022/04/16 03:29:33;;;;;;;17.07;14.63;;;10.10;82.70;;;;;;5077544;28;20449;-69
2022/04/16 03:32:00;;;;;;;16.20;14.53;;;10.10;82.80;;;;;;5077142;28;20476;-69
2022/04/16 03:34:27;;;;;;;18.40;14.67;;;10.10;82.90;;;;;;5077109;28;20856;-69
2022/04/16 03:36:56;;;;;;;18.23;16.30;;;10.10;82.70;;;;;;5077427;28;20553;-69
2022/04/16 03:39:23;;;;;;;18.40;15.00;;;10.00;82.70;;;;;;5076719;28;20440;-69
2022/04/16 03:41:50;;;;;;;15.30;13.70;;;10.00;82.70;;;;;;5076841;28;20472;-69
2022/04/16 03:44:18;;;;;;;16.47;14.73;;;10.00;82.90;;;;;;5076794;28;20463;-69
2022/04/16 03:46:45;;;;;;;16.40;14.70;;;10.00;83.00;;;;;;5076680;28;20896;-69
2022/04/16 03:49:11;;;;;;;16.97;15.07;;;9.90;84.20;;;;;;5076712;28;20447;-69
2022/04/16 03:51:38;;;;;;;16.17;14.57;;;9.90;84.30;;;;;;5076654;28;20468;-69
2022/04/16 04:02:18;;;;;;;18.93;14.90;;;9.80;84.70;;;;;;5069249;28;20820;-69
2022/04/16 04:04:46;;;;;;;17.20;15.50;;;9.80;84.70;;;;;;5076550;28;20448;-69
2022/04/16 04:07:13;;;;;;;16.00;14.30;;;9.80;84.70;;;;;;5076412;28;20451;-69
2022/04/16 04:09:41;;;;;;;15.07;13.47;;;9.80;84.70;;;;;;5076358;28;20445;-69
2022/04/16 04:12:10;;;;;;;16.20;14.40;;;9.70;84.40;;;;;;5076251;28;20465;-69
2022/04/16 04:14:39;;;;;;;17.83;16.00;;;9.70;84.60;;;;;;5076272;28;20523;-69
2022/04/16 04:17:07;;;;;;;17.67;15.90;;;9.70;84.80;;;;;;5076178;28;20495;-69
2022/04/16 04:19:35;;;;;;;16.07;14.37;;;9.70;84.90;;;;;;5076419;28;20466;-69
2022/04/16 04:22:02;;;;;;;18.30;15.87;;;9.60;84.80;;;;;;5076105;28;20480;-69
2022/04/16 04:24:29;;;;;;;19.50;16.60;;;9.60;85.00;;;;;;5076032;28;20449;-69
2022/04/16 04:26:58;;;;;;;19.50;15.87;;;9.60;85.30;;;;;;5076050;28;20448;-69
2022/04/16 04:29:24;;;;;;;19.70;17.23;;;9.60;85.60;;;;;;5076035;28;20864;-69
2022/04/16 04:31:51;;;;;;;17.30;15.47;;;9.60;86.00;;;;;;5075969;28;20498;-69
2022/04/16 04:34:18;;;;;;;18.40;16.30;;;9.60;86.40;;;;;;5076000;28;20456;-69
2022/04/16 04:36:45;;;;;;;19.13;16.53;;;9.60;86.20;;;;;;5075693;28;20453;-69
2022/04/16 04:39:12;;;;;;;22.43;17.20;;;9.50;85.80;;;;;;5074638;28;20982;-69
2022/04/16 04:41:39;;;;;;;17.67;15.80;;;9.50;85.70;;;;;;5075974;28;20472;-69
2022/04/16 04:44:08;;;;;;;15.43;13.80;;;9.50;85.80;;;;;;5075787;28;20449;-69
2022/04/16 04:46:35;;;;;;;12.30;11.10;;;9.40;85.30;;;;;;5075691;28;20452;-69
2022/04/16 04:49:02;;;;;;;12.93;11.53;;;9.30;85.20;;;;;;5075731;28;20593;-69
2022/04/16 04:51:29;;;;;;;14.63;13.07;;;9.30;85.40;;;;;;5075367;28;20468;-69
2022/04/16 04:53:56;;;;;;;13.77;12.20;;;9.20;85.40;;;;;;5075596;28;20456;-69
2022/04/16 04:56:22;;;;;;;16.27;13.17;;;9.20;85.50;;;;;;5075333;28;20461;-69
2022/04/16 04:58:49;;;;;;;14.17;11.40;;;9.10;85.60;;;;;;5075403;28;20500;-69
2022/04/16 05:01:18;;;;;;;14.80;13.23;;;9.10;85.70;;;;;;5075455;28;20473;-69
2022/04/16 05:03:45;;;;;;;13.00;11.70;;;9.10;85.70;;;;;;5075424;28;20461;-69
2022/04/16 05:06:12;;;;;;;12.87;11.57;;;9.10;85.80;;;;;;5075382;28;20452;-69
2022/04/16 05:08:38;;;;;;;12.80;11.47;;;9.10;85.90;;;;;;5074992;28;20963;-69
2022/04/16 05:11:05;;;;;;;11.47;10.27;;;9.10;86.20;;;;;;5075179;28;20471;-69
2022/04/16 05:13:32;;;;;;;15.23;13.13;;;9.00;86.50;;;;;;5075288;28;20460;-69
2022/04/16 05:15:58;;;;;;;13.53;11.30;;;9.00;86.70;;;;;;5074853;28;20453;-69
2022/04/16 05:18:26;;;;;;;12.90;11.50;;;9.00;87.10;;;;;;5075651;28;20480;-69
2022/04/16 05:20:53;;;;;;;12.93;11.53;;;9.00;87.20;;;;;;5074919;28;20476;-69
2022/04/16 05:23:20;;;;;;;13.10;11.80;;;9.00;87.30;;;;;;5074971;28;20444;-69
2022/04/16 05:25:47;;;;;;;15.87;11.57;;;9.00;87.40;;;;;;5075036;28;20896;-69
2022/04/16 05:28:13;;;;;;;13.27;11.70;;;9.00;87.90;;;;;;5075072;28;20449;-69
2022/04/16 05:30:44;;;;;;;14.90;12.80;;;9.00;88.30;;;;;;5075160;28;20448;-68
2022/04/16 05:34:18;;;;;;;16.77;13.10;;;9.10;88.80;;;;;;5074895;28;20436;-69
2022/04/16 05:36:02;;;;;;;15.73;14.03;;;9.10;89.40;;;;;;5074546;28;20523;-69
2022/04/16 05:38:29;;;;;;;16.73;15.03;;;9.10;89.90;;;;;;5074516;28;20481;-68
2022/04/16 05:40:55;;;;;;;16.30;14.63;;;9.10;90.00;;;;;;5074524;28;20470;-68
2022/04/16 05:43:22;;;;;;;15.93;14.30;;;9.20;90.40;;;;;;5074511;28;20862;-69
2022/04/16 05:45:49;;;;;;;16.40;14.80;;;9.20;90.70;;;;;;5074672;28;20452;-69
2022/04/16 05:48:16;;;;;;;17.43;14.87;;;9.20;91.20;;;;;;5073707;28;20441;-69
2022/04/16 05:50:43;;;;;;;18.87;14.87;;;9.20;91.00;;;;;;5074389;28;20574;-69
2022/04/16 05:53:13;;;;;;;18.87;15.80;;;9.30;91.80;;;;;;5074393;28;20456;-69
2022/04/16 05:55:43;;;;;;;20.00;17.47;;;9.30;91.60;;;;;;5074061;28;20813;-68
2022/04/16 05:58:11;;;;;;;20.87;16.87;;;9.40;92.00;;;;;;5074330;28;20468;-68
2022/04/16 06:00:39;;;;;;;20.40;17.33;;;9.40;92.20;;;;;;5073940;28;20966;-69
2022/04/16 06:03:06;;;;;;;20.00;16.53;;;9.40;92.50;;;;;;5074146;28;20548;-68
2022/04/16 06:05:33;;;;;;;22.00;18.17;;;9.40;92.70;;;;;;5074196;28;20454;-68
2022/04/16 06:08:00;;;;;;;21.80;19.40;;;9.40;93.00;;;;;;5074095;28;20455;-68
2022/04/16 06:10:29;;;;;;;21.00;18.67;;;9.50;93.40;;;;;;5073899;28;20948;-68
2022/04/16 06:12:56;;;;;;;20.60;18.17;;;9.50;94.00;;;;;;5074158;28;20906;-68
2022/04/16 06:15:23;;;;;;;25.37;19.93;;;9.60;93.90;;;;;;5073873;28;20444;-68
2022/04/16 06:17:49;;;;;;;20.20;18.00;;;9.70;94.10;;;;;;5073924;28;20512;-68
2022/04/16 06:20:16;;;;;;;21.77;19.40;;;9.80;94.20;;;;;;5074048;28;20463;-68
2022/04/16 06:22:43;;;;;;;21.77;19.00;;;9.80;94.30;;;;;;5074191;28;20832;-68
2022/04/16 06:25:10;;;;;;;22.33;20.03;;;9.90;94.50;;;;;;5074150;28;20449;-68
2022/04/16 06:27:39;;;;;;;21.50;19.17;;;10.00;94.10;;;;;;5073966;28;20447;-68
2022/04/16 06:30:09;;;;;;;22.37;19.93;;;10.10;94.40;;;;;;5073735;28;20459;-68
2022/04/16 06:32:36;;;;;;;21.83;19.50;;;10.20;94.80;;;;;;5073761;28;20502;-68
2022/04/16 06:35:05;;;;;;;20.10;17.13;;;10.30;95.00;;;;;;5073613;28;20454;-68
2022/04/16 06:37:32;;;;;;;21.97;18.20;;;10.40;94.90;;;;;;5073618;28;20488;-69
2022/04/16 06:39:59;;;;;;;17.97;15.70;;;10.60;94.90;;;;;;5073565;28;20960;-69
2022/04/16 06:42:26;;;;;;;27.60;19.87;;;10.70;94.80;;;;;;5073657;28;20473;-69
2022/04/16 06:44:54;;;;;;;21.50;19.07;;;10.90;94.60;;;;;;5073295;28;20824;-69
2022/04/16 06:47:21;;;;;;;18.20;15.50;;;11.00;95.00;;;;;;5073786;28;20444;-69
2022/04/16 06:49:48;;;;;;;21.17;16.30;;;11.10;94.80;;;;;;5073223;28;20944;-68
2022/04/16 06:52:14;;;;;;;18.10;16.20;;;11.30;94.50;;;;;;5073404;28;20468;-69
2022/04/16 06:54:43;;;;;;;15.77;14.13;;;11.40;94.30;;;;;;5073550;28;20444;-69
2022/04/16 06:57:09;;;;;;;19.80;15.40;;;11.50;94.00;;;;;;5073505;28;20484;-69
2022/04/16 06:59:37;;;;;;;18.67;16.00;;;11.70;93.70;;;;;;5072984;28;20480;-69
2022/04/16 07:02:06;;;;;;;17.57;14.30;;;11.80;93.40;;;;;;5073343;28;20471;-69
2022/04/16 07:04:32;;;;;;;21.87;17.03;;;11.90;92.90;;;;;;5073380;28;20456;-69
2022/04/16 07:07:00;;;;;;;18.20;15.47;;;12.10;92.80;;;;;;5073364;28;20527;-69
2022/04/16 07:09:27;;;;;;;16.13;14.43;;;12.20;92.60;;;;;;5073234;28;20449;-69
2022/04/16 07:11:54;;;;;;;15.60;13.97;;;12.40;92.40;;;;;;5073288;28;20480;-69
2022/04/16 07:14:21;;;;;;;14.77;13.03;;;12.50;92.00;;;;;;5073458;28;20445;-69
2022/04/16 07:16:48;;;;;;;16.13;14.43;;;12.60;91.70;;;;;;5073289;28;20449;-69
2022/04/16 07:19:16;;;;;;;15.17;13.57;;;12.80;91.40;;;;;;5073111;28;20480;-70
2022/04/16 07:21:43;;;;;;;18.40;14.60;;;12.90;91.10;;;;;;5073463;28;20472;-70
2022/04/16 07:24:10;;;;;;;17.37;15.23;;;13.10;90.80;;;;;;5073179;28;20494;-70
2022/04/16 07:26:36;;;;;;;15.27;13.67;;;13.20;90.50;;;;;;5072880;28;20955;-70
2022/04/16 07:29:03;;;;;;;14.90;13.03;;;13.40;90.30;;;;;;5073136;28;20444;-70
2022/04/16 07:31:30;;;;;;;16.17;14.50;;;13.50;89.80;;;;;;5072883;28;21041;-70
2022/04/16 07:33:57;;;;;;;17.03;14.27;;;13.70;89.10;;;;;;5073078;28;20449;-70
2022/04/16 07:36:25;;;;;;;16.43;14.73;;;13.80;87.90;;;;;;5073162;28;20479;-70
2022/04/16 07:38:51;;;;;;;16.10;14.47;;;14.00;87.50;;;;;;5073005;28;20484;-70
2022/04/16 07:41:18;;;;;;;16.77;15.00;;;14.10;86.60;;;;;;5073236;28;20456;-70
2022/04/16 07:43:45;;;;;;;16.27;13.80;;;14.20;85.90;;;;;;5073074;28;20479;-70
2022/04/16 07:46:12;;;;;;;16.73;15.03;;;14.40;85.30;;;;;;5072790;28;20455;-70
2022/04/16 07:48:39;;;;;;;15.70;14.10;;;14.50;84.10;;;;;;5073043;28;20498;-70
2022/04/16 07:51:06;;;;;;;13.77;12.40;;;14.70;83.50;;;;;;5073304;28;20846;-70
2022/04/16 07:53:34;;;;;;;14.10;12.70;;;14.90;83.10;;;;;;5073171;28;20531;-70
2022/04/16 07:56:02;;;;;;;15.27;13.67;;;15.00;82.20;;;;;;5073112;28;20479;-70
2022/04/16 07:58:28;;;;;;;13.90;12.50;;;15.20;81.40;;;;;;5072578;28;21075;-70
2022/04/16 08:00:55;;;;;;;14.70;12.70;;;15.40;80.20;;;;;;5072469;28;21018;-70
2022/04/16 08:03:22;;;;;;;13.90;12.33;;;15.60;79.10;;;;;;5072944;28;20455;-70
2022/04/16 08:05:49;;;;;;;14.40;11.83;;;15.80;78.00;;;;;;5072819;28;20451;-70
2022/04/16 08:08:16;;;;;;;12.50;11.40;;;15.90;78.00;;;;;;5072761;28;20440;-70
2022/04/16 08:10:45;;;;;;;14.07;12.77;;;16.10;76.70;;;;;;5073760;28;20449;-70
2022/04/16 08:13:12;;;;;;;14.63;13.07;;;16.40;75.50;;;;;;5076451;28;20448;-70
2022/04/16 08:15:39;;;;;;;11.03;10.00;;;16.50;74.70;;;;;;5076522;28;20448;-70
2022/04/16 08:18:07;;;;;;;13.33;12.10;;;16.70;73.70;;;;;;5076122;28;20492;-70
2022/04/16 08:20:33;;;;;;;13.57;12.20;;;16.90;72.10;;;;;;5075848;28;20491;-70
2022/04/16 08:23:05;;;;;;;13.17;11.77;;;17.00;71.10;;;;;;5076261;28;20482;-70
2022/04/16 08:25:47;;;;;;;11.80;10.70;;;17.10;70.40;;;;;;5076505;28;20432;-70
2022/04/16 08:28:15;;;;;;;10.30;9.40;;;17.40;70.70;;;;;;5075886;28;20429;-70
2022/04/16 08:30:43;;;;;;;11.77;10.57;;;17.60;68.50;;;;;;5076189;28;20452;-71
2022/04/16 08:33:15;;;;;;;13.90;12.60;;;17.70;66.50;;;;;;5076371;28;20867;-70
2022/04/16 08:35:43;;;;;;;15.63;14.03;;;18.00;65.40;;;;;;5076035;28;20468;-70
2022/04/16 08:38:10;;;;;;;13.83;12.30;;;18.10;65.00;;;;;;5075406;28;20892;-70
2022/04/16 08:40:37;;;;;;;10.87;9.77;;;18.20;65.50;;;;;;5075736;28;20452;-71
2022/04/16 08:43:06;;;;;;;10.73;9.73;;;18.30;64.80;;;;;;5075876;28;20539;-70
2022/04/16 08:45:37;;;;;;;11.80;10.70;;;18.50;63.60;;;;;;5075713;28;20498;-70
2022/04/16 08:48:05;;;;;;;11.00;9.90;;;18.70;61.30;;;;;;5075810;28;20463;-70
2022/04/16 08:50:33;;;;;;;11.80;9.70;;;18.80;60.10;;;;;;5075706;28;20539;-70
2022/04/16 08:53:00;;;;;;;10.10;9.10;;;19.00;59.70;;;;;;5075621;28;20555;-71
2022/04/16 08:55:28;;;;;;;8.17;7.43;;;19.20;58.60;;;;;;5075698;28;20481;-70
2022/04/16 08:57:56;;;;;;;8.27;7.00;;;19.40;57.30;;;;;;5075494;28;20484;-70
2022/04/16 09:00:23;;;;;;;7.50;6.90;;;19.60;56.30;;;;;;5075477;28;20510;-70
2022/04/16 09:03:04;;;;;;;8.87;8.07;;;19.80;55.30;;;;;;5075554;28;20464;-71
2022/04/16 09:05:31;;;;;;;7.80;7.10;;;20.00;54.20;;;;;;5076067;28;20433;-71
2022/04/16 09:07:59;;;;;;;8.10;7.40;;;20.30;53.70;;;;;;5075286;28;20823;-70
2022/04/16 09:10:28;;;;;;;7.17;6.57;;;20.50;52.50;;;;;;5075569;28;20476;-70
2022/04/16 09:12:56;;;;;;;6.43;5.83;;;20.70;52.00;;;;;;5075618;28;20451;-70
2022/04/16 09:15:25;;;;;;;6.10;5.60;;;20.90;51.60;;;;;;5075152;28;20452;-70
2022/04/16 09:18:00;;;;;;;5.17;4.77;;;21.20;50.50;;;;;;5075160;28;20448;-70
2022/04/16 09:20:36;;;;;;;5.20;4.70;;;21.40;48.90;;;;;;5074780;28;20457;-71
2022/04/16 09:23:14;;;;;;;3.87;3.57;;;21.60;48.00;;;;;;5073885;28;20470;-71
2022/04/16 09:25:43;;;;;;;4.10;3.70;;;21.70;45.30;;;;;;5074954;28;20440;-71
2022/04/16 09:28:10;;;;;;;5.07;4.57;;;21.70;44.50;;;;;;5074878;28;20449;-71
2022/04/16 09:30:48;;;;;;;6.37;5.73;;;21.70;44.80;;;;;;5074520;28;20963;-71
2022/04/16 09:33:16;;;;;;;6.17;5.67;;;21.60;45.00;;;;;;5074809;28;20444;-71
2022/04/16 09:35:43;;;;;;;6.27;5.70;;;21.50;45.70;;;;;;5075629;28;20440;-71
2022/04/16 09:38:12;;;;;;;6.87;6.27;;;21.40;46.00;;;;;;5074716;28;20448;-71
2022/04/16 09:40:39;;;;;;;5.60;5.10;;;21.30;46.00;;;;;;5074634;28;20471;-70
2022/04/16 09:43:07;;;;;;;6.50;5.90;;;21.10;45.90;;;;;;5074328;28;20529;-70
2022/04/16 09:45:38;;;;;;;6.13;5.63;;;21.00;45.40;;;;;;5074539;28;20467;-70
2022/04/16 09:48:09;;;;;;;6.70;5.40;;;21.10;46.40;;;;;;5074189;28;20429;-70
2022/04/16 09:50:39;;;;;;;4.00;3.70;;;21.20;46.00;;;;;;5074526;28;20425;-71
2022/04/16 09:53:07;;;;;;;5.80;5.30;;;21.30;45.60;;;;;;5074454;28;20452;-71
2022/04/16 09:55:34;;;;;;;5.53;5.03;;;21.50;45.20;;;;;;5074059;28;20974;-71
2022/04/16 09:58:02;;;;;;;5.00;4.27;;;21.60;45.00;;;;;;5074581;28;20543;-71
2022/04/16 10:00:30;;;;;;;6.20;5.60;;;21.60;44.90;;;;;;5074267;28;20489;-70
2022/04/16 10:02:57;;;;;;;5.50;5.00;;;21.80;44.90;;;;;;5074490;28;20819;-70
2022/04/16 10:05:24;;;;;;;5.63;5.13;;;22.10;44.40;;;;;;5074266;28;20456;-70
2022/04/16 10:07:53;;;;;;;6.33;5.73;;;22.40;44.00;;;;;;5074454;28;20461;-70
2022/04/16 10:10:25;;;;;;;7.03;5.80;;;22.70;43.10;;;;;;5074261;28;20497;-70
2022/04/16 10:13:04;;;;;;;10.23;6.47;;;23.00;43.40;;;;;;5073903;28;20477;-70
2022/04/16 10:16:02;;;;;;;5.40;5.00;;;23.30;42.60;;;;;;5073896;28;20447;-71
2022/04/16 10:18:30;;;;;;;7.43;5.90;;;23.50;42.10;;;;;;5073947;28;20512;-71
2022/04/16 10:20:58;;;;;;;7.20;6.17;;;23.70;41.40;;;;;;5074024;28;20505;-71
2022/04/16 10:23:31;;;;;;;8.27;5.87;;;24.00;42.00;;;;;;5074083;28;20463;-71
2022/04/16 10:26:04;;;;;;;10.67;6.40;;;24.50;41.60;;;;;;5073512;28;20475;-70
2022/04/16 10:28:38;;;;;;;7.50;6.23;;;25.10;39.80;;;;;;5073885;28;20455;-71
2022/04/16 10:31:07;;;;;;;7.57;6.20;;;25.50;38.40;;;;;;5073462;28;20508;-71
2022/04/16 10:33:34;;;;;;;7.20;6.57;;;25.90;38.00;;;;;;5073109;28;21042;-71
2022/04/16 10:36:03;;;;;;;5.33;4.73;;;26.30;36.70;;;;;;5073745;28;20570;-71
2022/04/16 10:38:37;;;;;;;6.77;6.17;;;26.70;36.50;;;;;;5073539;28;20539;-71
2022/04/16 10:41:11;;;;;;;6.73;6.03;;;27.30;33.80;;;;;;5073654;28;20465;-71
2022/04/16 10:43:38;;;;;;;6.60;5.30;;;27.80;33.20;;;;;;5073623;28;20433;-71
2022/04/16 10:46:06;;;;;;;5.17;4.30;;;28.40;31.40;;;;;;5073665;28;20445;-71
2022/04/16 10:48:34;;;;;;;4.83;4.43;;;29.10;30.30;;;;;;5073135;28;20948;-71
2022/04/16 10:51:02;;;;;;;4.70;4.30;;;29.70;28.60;;;;;;5073568;28;20468;-71
2022/04/16 10:53:34;;;;;;;5.17;4.77;;;30.30;29.10;;;;;;5073722;28;20448;-69
2022/04/16 10:56:12;;;;;;;4.13;3.83;;;31.00;27.80;;;;;;5073500;28;20455;-69
2022/04/16 10:58:40;;;;;;;5.70;5.00;;;31.40;26.20;;;;;;5073474;28;20460;-68
2022/04/16 11:01:09;;;;;;;5.53;4.10;;;32.00;26.60;;;;;;5073488;28;20475;-68
2022/04/16 11:03:45;;;;;;;5.70;5.10;;;32.60;25.90;;;;;;5073321;28;20455;-68
2022/04/16 11:06:12;;;;;;;5.07;4.67;;;33.20;24.50;;;;;;5073137;28;20931;-69
2022/04/16 11:08:41;;;;;;;6.40;5.90;;;33.60;24.20;;;;;;5073435;28;20444;-69
2022/04/16 11:11:10;;;;;;;4.53;4.23;;;33.90;23.30;;;;;;5073373;28;20472;-69
2022/04/16 11:13:39;;;;;;;6.13;5.53;;;34.20;23.30;;;;;;5073301;28;20816;-69
2022/04/16 11:16:06;;;;;;;6.63;6.13;;;34.60;23.10;;;;;;5073429;28;20522;-68
2022/04/16 11:18:42;;;;;;;6.27;5.67;;;34.80;22.40;;;;;;5072869;28;20513;-68
2022/04/16 11:21:10;;;;;;;5.73;5.30;;;35.10;22.30;;;;;;5073247;28;20479;-68
2022/04/16 11:23:44;;;;;;;5.03;4.60;;;35.20;21.40;;;;;;5073332;28;20451;-68
2022/04/16 11:34:27;;;;;;;5.57;5.17;;;35.10;21.90;;;;;;5073192;28;20401;-69
2022/04/16 11:36:54;;;;;;;4.93;4.53;;;35.30;21.70;;;;;;5072995;28;20970;-69
2022/04/16 11:39:24;;;;;;;5.80;5.37;;;35.70;21.20;;;;;;5073066;28;20483;-69
2022/04/16 11:41:55;;;;;;;5.43;4.93;;;36.20;20.70;;;;;;5073034;28;20233;-69
2022/04/16 11:44:38;;;;;;;4.97;4.57;;;36.60;20.40;;;;;;5072766;28;20186;-69
2022/04/16 11:47:12;;;;;;;4.60;4.20;;;37.00;20.00;;;;;;5076871;28;20190;-69
2022/04/16 11:49:41;;;;;;;4.45;4.15;;;37.30;19.80;;;;;;5077221;28;20200;-69
2022/04/16 11:52:09;;;;;;;3.15;2.95;;;37.80;19.40;;;;;;5077155;28;20245;-69
2022/04/16 11:54:38;;;;;;;4.40;4.00;;;38.20;19.40;;;;;;5077136;28;20617;-69
2022/04/16 11:57:05;;;;;;;5.13;4.45;;;38.60;18.40;;;;;;5076779;28;20201;-70
2022/04/16 11:59:33;;;;;;;4.95;4.32;;;38.90;18.00;;;;;;5076275;28;20720;-70
2022/04/16 12:02:04;;;;;;;4.75;4.35;;;39.10;17.40;;;;;;5076574;28;20304;-70
2022/04/16 12:04:40;;;;;;;4.50;4.20;;;39.40;17.40;;;;;;5076627;28;20186;-70
2022/04/16 12:07:13;;;;;;;5.10;4.70;;;39.80;16.90;;;;;;5076649;28;20189;-70
2022/04/16 12:09:51;;;;;;;4.53;4.13;;;40.00;16.50;;;;;;5076361;28;20202;-70
2022/04/16 12:12:20;;;;;;;4.65;4.13;;;40.10;16.80;;;;;;5076282;28;20743;-70
2022/04/16 12:14:48;;;;;;;4.35;4.00;;;40.30;16.70;;;;;;5076455;28;20206;-70
2022/04/16 12:17:25;;;;;;;3.88;3.58;;;40.60;16.30;;;;;;5076386;28;20591;-70
2022/04/16 12:20:03;;;;;;;4.88;4.47;;;40.70;16.30;;;;;;5075829;28;20221;-70
2022/04/16 12:22:30;;;;;;;3.92;3.70;;;40.90;16.20;;;;;;5076375;28;20244;-70
2022/04/16 12:25:07;;;;;;;5.13;4.72;;;41.00;15.90;;;;;;5076219;28;20205;-70
2022/04/16 12:27:34;;;;;;;4.40;4.00;;;41.20;15.70;;;;;;5076313;28;20190;-70
2022/04/16 12:30:03;;;;;;;4.10;3.80;;;41.20;15.60;;;;;;5076122;28;20201;-70
2022/04/16 12:32:29;;;;;;;4.10;3.70;;;41.30;15.80;;;;;;5075969;28;20233;-70
2022/04/16 12:34:56;;;;;;;4.05;3.65;;;41.30;15.20;;;;;;5075710;28;20267;-70
2022/04/16 12:37:23;;;;;;;4.60;4.30;;;41.50;15.20;;;;;;5075966;28;20213;-70
2022/04/16 12:39:50;;;;;;;4.22;3.92;;;41.50;14.40;;;;;;5075891;28;20225;-70
2022/04/16 12:42:18;;;;;;;3.20;3.00;;;41.50;15.10;;;;;;5075808;28;20267;-70
2022/04/16 12:44:45;;;;;;;2.65;2.45;;;41.50;15.00;;;;;;5075993;28;20612;-70
2022/04/16 12:47:11;;;;;;;2.95;2.75;;;41.60;14.50;;;;;;5075798;28;20201;-70
2022/04/16 12:49:38;;;;;;;2.20;2.10;;;41.80;14.40;;;;;;5075931;28;20202;-70
2022/04/16 12:52:05;;;;;;;3.67;2.58;;;41.90;14.20;;;;;;5075428;28;20248;-70
2022/04/16 12:54:34;;;;;;;2.53;2.33;;;42.10;14.00;;;;;;5075732;28;20212;-70
2022/04/16 12:57:01;;;;;;;3.10;2.47;;;42.30;13.90;;;;;;5075442;28;20211;-70
2022/04/16 12:59:29;;;;;;;2.28;2.08;;;42.60;13.90;;;;;;5075473;28;20214;-70
2022/04/16 13:01:56;;;;;;;2.28;2.08;;;42.80;12.80;;;;;;5075304;28;20283;-69
2022/04/16 13:04:22;;;;;;;2.30;2.10;;;43.00;13.20;;;;;;5075123;28;20622;-69
2022/04/16 13:06:49;;;;;;;3.83;2.50;;;43.30;13.20;;;;;;5075065;28;20205;-70